createdAt,value
2018-11-23T00:01:04.686Z,98392.58
2018-11-23T00:03:33.632Z,98393.80
2018-11-23T00:06:02.683Z,98392.70
2018-11-23T00:08:31.690Z,98396.17
2018-11-23T00:11:00.520Z,98393.92
2018-11-23T00:13:29.521Z,98400.14
2018-11-23T00:15:58.990Z,98403.64
2018-11-23T00:18:28.030Z,98402.84
2018-11-23T00:20:58.145Z,98412.81
2018-11-23T00:23:27.126Z,98410.28
2018-11-23T00:25:56.770Z,98408.04
2018-11-23T00:28:25.680Z,98411.00
2018-11-23T00:30:54.260Z,98413.33
2018-11-23T00:33:23.420Z,98412.41
2018-11-23T00:35:53.656Z,98411.43
2018-11-23T00:38:22.389Z,98412.67
2018-11-23T00:40:51.960Z,98414.33
2018-11-23T00:43:21.378Z,98408.95
2018-11-23T00:45:50.523Z,98414.42
2018-11-23T00:48:20.302Z,98418.22
2018-11-23T00:50:49.872Z,98421.05
2018-11-23T00:53:19.018Z,98426.45
2018-11-23T00:55:48.403Z,98435.22
2018-11-23T00:58:17.162Z,98438.47
2018-11-23T01:00:46.865Z,98441.23
2018-11-23T01:03:16.050Z,98437.27
2018-11-23T01:05:45.117Z,98454.06
2018-11-23T01:08:14.072Z,98440.83
2018-11-23T01:10:43.538Z,98444.27
2018-11-23T01:13:13.003Z,98443.88
2018-11-23T01:15:41.705Z,98441.62
2018-11-23T01:18:12.388Z,98444.69
2018-11-23T01:20:41.181Z,98442.94
2018-11-23T01:23:10.421Z,98443.37
2018-11-23T01:25:40.296Z,98449.55
2018-11-23T01:28:09.271Z,98452.20
2018-11-23T01:30:38.467Z,98451.48
2018-11-23T01:33:07.255Z,98464.01
2018-11-23T01:35:35.836Z,98466.36
2018-11-23T01:38:05.021Z,98468.51
2018-11-23T01:40:33.835Z,98467.90
2018-11-23T01:43:02.737Z,98464.11
2018-11-23T01:45:31.746Z,98459.36
2018-11-23T01:48:01.128Z,98462.08
2018-11-23T01:50:30.718Z,98461.58
2018-11-23T01:52:59.746Z,98459.36
2018-11-23T01:55:28.822Z,98460.58
2018-11-23T01:57:57.971Z,98457.39
2018-11-23T02:00:28.183Z,98451.42
2018-11-23T02:02:58.468Z,98445.09
2018-11-23T02:05:27.473Z,98446.53
2018-11-23T02:07:56.293Z,98444.99
2018-11-23T02:10:24.996Z,98445.59
2018-11-23T02:12:54.237Z,98438.98
2018-11-23T02:15:23.780Z,98437.38
2018-11-23T02:17:52.567Z,98435.95
2018-11-23T02:20:22.026Z,98429.73
2018-11-23T02:22:51.026Z,98427.80
2018-11-23T02:25:20.351Z,98434.91
2018-11-23T02:27:49.345Z,98432.09
2018-11-23T02:30:22.973Z,98426.91
2018-11-23T02:32:51.805Z,98424.86
2018-11-23T02:35:22.136Z,98419.97
2018-11-23T02:37:50.958Z,98420.08
2018-11-23T02:40:20.707Z,98412.97
2018-11-23T02:42:49.386Z,98411.10
2018-11-23T02:45:20.292Z,98415.00
2018-11-23T02:47:50.401Z,98413.97
2018-11-23T02:50:19.389Z,98415.39
2018-11-23T02:52:48.487Z,98412.64
2018-11-23T02:55:18.402Z,98410.11
2018-11-23T02:57:47.582Z,98405.75
2018-11-23T03:00:18.436Z,98408.58
2018-11-23T03:02:47.676Z,98405.14
2018-11-23T03:05:17.962Z,98405.14
2018-11-23T03:07:46.913Z,98408.28
2018-11-23T03:10:16.881Z,98410.42
2018-11-23T03:12:46.451Z,98409.28
2018-11-23T03:15:16.818Z,98410.20
2018-11-23T03:17:46.103Z,98415.39
2018-11-23T03:20:16.193Z,98419.03
2018-11-23T03:22:45.018Z,98420.45
2018-11-23T03:25:14.233Z,98417.52
2018-11-23T03:27:43.816Z,98428.81
2018-11-23T03:30:16.563Z,98428.81
2018-11-23T03:32:46.423Z,98423.09
2018-11-23T03:35:16.099Z,98426.17
2018-11-23T03:37:45.178Z,98433.27
2018-11-23T03:40:14.096Z,98437.52
2018-11-23T03:42:42.888Z,98435.41
2018-11-23T03:45:13.124Z,98436.73
2018-11-23T03:47:42.402Z,98441.09
2018-11-23T03:50:12.349Z,98439.37
2018-11-23T03:52:41.637Z,98434.88
2018-11-23T03:55:11.159Z,98432.55
2018-11-23T03:57:40.040Z,98432.86
2018-11-23T04:00:18.677Z,98432.44
2018-11-23T04:02:48.309Z,98432.53
2018-11-23T04:05:19.520Z,98434.47
2018-11-23T04:07:49.648Z,98429.89
2018-11-23T04:10:19.891Z,98431.09
2018-11-23T04:12:49.283Z,98428.18
2018-11-23T04:15:18.579Z,98432.75
2018-11-23T04:17:48.157Z,98426.03
2018-11-23T04:20:18.758Z,98421.14
2018-11-23T04:22:47.713Z,98425.72
2018-11-23T04:25:18.141Z,98424.00
2018-11-23T04:27:48.363Z,98415.16
2018-11-23T04:30:18.790Z,98424.50
2018-11-23T04:32:49.742Z,98421.96
2018-11-23T04:35:20.010Z,98420.30
2018-11-23T04:37:50.083Z,98418.30
2018-11-23T04:40:20.231Z,98415.86
2018-11-23T04:42:49.473Z,98417.67
2018-11-23T04:45:18.738Z,98413.71
2018-11-23T04:47:47.797Z,98409.07
2018-11-23T04:50:17.377Z,98405.09
2018-11-23T04:52:47.276Z,98409.45
2018-11-23T04:55:16.627Z,98401.41
2018-11-23T04:57:45.714Z,98396.93
2018-11-23T05:00:17.139Z,98396.42
2018-11-23T05:02:46.717Z,98397.80
2018-11-23T05:05:15.727Z,98394.44
2018-11-23T05:07:45.730Z,98393.33
2018-11-23T05:10:15.677Z,98397.19
2018-11-23T05:12:45.000Z,98393.13
2018-11-23T05:15:15.612Z,98388.88
2018-11-23T05:17:44.671Z,98379.25
2018-11-23T05:20:14.469Z,98382.56
2018-11-23T05:22:43.626Z,98380.54
2018-11-23T05:25:14.093Z,98378.19
2018-11-23T05:27:43.249Z,98386.84
2018-11-23T05:30:15.381Z,98380.95
2018-11-23T05:32:44.582Z,98393.94
2018-11-23T05:35:14.668Z,98395.06
2018-11-23T05:37:43.990Z,98384.67
2018-11-23T05:40:14.969Z,98385.09
2018-11-23T05:42:43.683Z,98385.80
2018-11-23T05:45:14.731Z,98383.44
2018-11-23T05:47:43.811Z,98381.17
2018-11-23T05:50:28.132Z,98384.34
2018-11-23T05:52:56.967Z,98386.38
2018-11-23T05:55:26.057Z,98383.20
2018-11-23T05:57:55.443Z,98382.94
2018-11-23T06:00:25.719Z,98382.34
2018-11-23T06:02:54.783Z,98385.16
2018-11-23T06:05:23.646Z,98382.61
2018-11-23T06:07:52.597Z,98379.47
2018-11-23T06:10:22.008Z,98380.41
2018-11-23T06:12:50.762Z,98383.93
2018-11-23T06:15:21.393Z,98373.58
2018-11-23T06:17:50.419Z,98382.00
2018-11-23T06:20:21.058Z,98375.28
2018-11-23T06:22:50.526Z,98380.89
2018-11-23T06:25:25.568Z,98386.88
2018-11-23T06:27:54.875Z,98383.91
2018-11-23T06:30:24.009Z,98384.73
2018-11-23T06:33:04.034Z,98382.00
2018-11-23T06:35:32.618Z,98381.82
2018-11-23T06:38:01.571Z,98378.84
2018-11-23T06:40:30.911Z,98379.83
2018-11-23T06:43:03.082Z,98383.41
2018-11-23T06:45:35.193Z,98387.87
2018-11-23T06:48:05.224Z,98385.94
2018-11-23T06:50:34.836Z,98381.07
2018-11-23T06:53:03.879Z,98387.46
2018-11-23T06:55:34.349Z,98390.90
2018-11-23T06:58:04.251Z,98389.25
2018-11-23T07:00:33.508Z,98396.50
2018-11-23T07:03:02.953Z,98399.39
2018-11-23T07:05:31.726Z,98402.14
2018-11-23T07:08:00.657Z,98408.87
2018-11-23T07:10:30.193Z,98406.88
2018-11-23T07:12:59.536Z,98412.45
2018-11-23T07:15:28.873Z,98406.66
2018-11-23T07:17:59.038Z,98409.82
2018-11-23T07:20:28.158Z,98403.94
2018-11-23T07:22:57.359Z,98404.27
2018-11-23T07:25:27.509Z,98402.53
2018-11-23T07:27:56.845Z,98400.63
2018-11-23T07:30:26.999Z,98402.38
2018-11-23T07:32:57.316Z,98397.28
2018-11-23T07:35:26.453Z,98401.35
2018-11-23T07:37:55.587Z,98404.21
2018-11-23T07:40:40.202Z,98409.39
2018-11-23T07:43:09.672Z,98403.39
2018-11-23T07:45:38.932Z,98405.73
2018-11-23T07:48:08.370Z,98399.91
2018-11-23T07:50:37.238Z,98399.98
2018-11-23T07:53:06.477Z,98394.47
2018-11-23T07:55:35.922Z,98388.83
2018-11-23T07:58:05.022Z,98383.20
2018-11-23T08:00:33.892Z,98382.70
2018-11-23T08:03:02.622Z,98378.19
2018-11-23T08:05:31.513Z,98379.27
2018-11-23T08:08:00.180Z,98373.93
2018-11-23T08:10:28.163Z,98374.89
2018-11-23T08:12:57.259Z,98364.63
2018-11-23T08:15:27.449Z,98368.88
2018-11-23T08:17:57.609Z,98361.22
2018-11-23T08:20:26.919Z,98361.12
2018-11-23T08:22:56.015Z,98355.37
2018-11-23T08:25:25.927Z,98354.12
2018-11-23T08:27:56.619Z,98356.75
2018-11-23T08:30:27.157Z,98353.47
2018-11-23T08:32:56.196Z,98350.98
2018-11-23T08:35:25.114Z,98342.48
2018-11-23T08:37:54.619Z,98343.45
2018-11-23T08:40:25.734Z,98347.70
2018-11-23T08:42:55.267Z,98346.69
2018-11-23T08:45:26.018Z,98347.28
2018-11-23T08:47:55.267Z,98343.42
2018-11-23T08:50:29.641Z,98350.78
2018-11-23T08:52:58.789Z,98342.81
2018-11-23T08:55:28.756Z,98346.98
2018-11-23T08:57:57.992Z,98346.71
2018-11-23T09:00:29.444Z,98355.40
2018-11-23T09:03:02.193Z,98348.52
2018-11-23T09:05:31.472Z,98344.70
2018-11-23T09:08:01.772Z,98358.28
2018-11-23T09:10:31.264Z,98359.19
2018-11-23T09:13:01.680Z,98357.33
2018-11-23T09:15:30.522Z,98349.34
2018-11-23T09:17:59.466Z,98347.81
2018-11-23T09:20:28.485Z,98353.72
2018-11-23T09:22:57.892Z,98358.98
2018-11-23T09:25:27.094Z,98362.33
2018-11-23T09:27:56.351Z,98375.30
2018-11-23T09:30:26.514Z,98369.01
2018-11-23T09:32:56.390Z,98378.40
2018-11-23T09:35:26.022Z,98365.09
2018-11-23T09:37:55.322Z,98358.81
2018-11-23T09:40:26.730Z,98349.71
2018-11-23T09:42:56.433Z,98349.98
2018-11-23T09:45:26.883Z,98346.28
2018-11-23T09:47:57.899Z,98340.52
2018-11-23T09:50:27.532Z,98338.87
2018-11-23T09:52:57.657Z,98335.92
2018-11-23T09:55:27.499Z,98338.44
2018-11-23T09:57:57.011Z,98343.82
2018-11-23T10:00:27.634Z,98334.47
2018-11-23T10:02:57.199Z,98331.87
2018-11-23T10:05:26.849Z,98320.63
2018-11-23T10:07:57.399Z,98327.86
2018-11-23T10:10:26.773Z,98325.91
2018-11-23T10:12:56.043Z,98324.27
2018-11-23T10:15:25.807Z,98330.03
2018-11-23T10:17:54.579Z,98328.34
2018-11-23T10:20:26.684Z,98321.14
2018-11-23T10:22:55.928Z,98303.57
2018-11-23T10:25:26.262Z,98286.47
2018-11-23T10:27:55.410Z,98274.95
2018-11-23T10:30:27.322Z,98271.47
2018-11-23T10:32:58.648Z,98268.33
2018-11-23T10:35:28.738Z,98272.01
2018-11-23T10:38:00.100Z,98261.48
2018-11-23T10:40:33.013Z,98251.22
2018-11-23T10:43:02.622Z,98246.83
2018-11-23T10:45:32.847Z,98249.75
2018-11-23T10:48:02.861Z,98238.72
2018-11-23T10:50:33.269Z,98242.20
2018-11-23T10:53:02.081Z,98240.02
2018-11-23T10:55:33.507Z,98234.40
2018-11-23T10:58:03.455Z,98224.13
2018-11-23T11:00:38.536Z,98218.50
2018-11-23T11:03:12.647Z,98215.41
2018-11-23T11:05:47.164Z,98210.47
2018-11-23T11:08:16.045Z,98209.20
2018-11-23T11:10:45.190Z,98196.27
2018-11-23T11:13:14.069Z,98196.89
2018-11-23T11:15:43.770Z,98196.02
2018-11-23T11:18:15.299Z,98187.23
2018-11-23T11:20:44.164Z,98190.80
2018-11-23T11:23:13.277Z,98184.51
2018-11-23T11:25:42.550Z,98176.08
2018-11-23T11:28:11.768Z,98167.10
2018-11-23T11:30:41.180Z,98167.53
2018-11-23T11:33:10.270Z,98169.88
2018-11-23T11:35:38.983Z,98167.13
2018-11-23T11:38:07.657Z,98156.95
2018-11-23T11:40:36.774Z,98158.89
2018-11-23T11:43:06.111Z,98149.06
2018-11-23T11:45:35.683Z,98149.23
2018-11-23T11:48:04.525Z,98148.27
2018-11-23T11:50:34.608Z,98155.55
2018-11-23T11:53:03.958Z,98154.38
2018-11-23T11:55:33.252Z,98154.28
2018-11-23T11:58:02.326Z,98140.52
2018-11-23T12:00:31.573Z,98138.46
2018-11-23T12:03:00.720Z,98136.42
2018-11-23T12:05:29.803Z,98125.67
2018-11-23T12:07:59.503Z,98115.68
2018-11-23T12:10:28.795Z,98118.60
2018-11-23T12:12:57.888Z,98116.25
2018-11-23T12:15:27.114Z,98109.91
2018-11-23T12:17:56.124Z,98099.55
2018-11-23T12:20:26.409Z,98105.16
2018-11-23T12:22:55.615Z,98098.36
2018-11-23T12:25:25.080Z,98101.34
2018-11-23T12:27:54.090Z,98095.48
2018-11-23T12:30:23.850Z,98090.47
2018-11-23T12:32:54.760Z,98090.22
2018-11-23T12:35:24.582Z,98090.22
2018-11-23T12:37:54.021Z,98091.05
2018-11-23T12:40:23.164Z,98093.30
2018-11-23T12:42:52.164Z,98090.66
2018-11-23T12:45:22.461Z,98087.90
2018-11-23T12:47:51.773Z,98085.12
2018-11-23T12:50:22.264Z,98085.61
2018-11-23T12:52:51.321Z,98077.92
2018-11-23T12:55:20.984Z,98082.82
2018-11-23T12:57:49.864Z,98078.70
2018-11-23T13:00:21.844Z,98073.42
2018-11-23T13:02:55.849Z,98075.67
2018-11-23T13:05:26.111Z,98070.39
2018-11-23T13:07:56.369Z,98072.56
2018-11-23T13:10:26.073Z,98073.31
2018-11-23T13:12:55.630Z,98081.50
2018-11-23T13:15:24.928Z,98076.64
2018-11-23T13:17:54.388Z,98080.52
2018-11-23T13:20:23.274Z,98070.40
2018-11-23T13:22:52.438Z,98067.77
2018-11-23T13:25:24.610Z,98072.55
2018-11-23T13:27:54.068Z,98067.81
2018-11-23T13:30:24.826Z,98060.97
2018-11-23T13:32:53.650Z,98066.81
2018-11-23T13:35:22.541Z,98053.77
2018-11-23T13:37:52.910Z,98057.23
2018-11-23T13:40:23.161Z,98050.55
2018-11-23T13:42:52.270Z,98049.08
2018-11-23T13:45:22.621Z,98048.24
2018-11-23T13:47:51.845Z,98046.64
2018-11-23T13:50:21.896Z,98037.77
2018-11-23T13:52:52.069Z,98031.94
2018-11-23T13:55:21.066Z,98025.86
2018-11-23T13:57:50.703Z,98018.84
2018-11-23T14:00:21.189Z,98015.20
2018-11-23T14:02:49.994Z,98020.53
2018-11-23T14:05:21.372Z,98026.41
2018-11-23T14:07:53.189Z,98018.05
2018-11-23T14:10:23.337Z,98017.20
2018-11-23T14:12:52.899Z,98007.64
2018-11-23T14:15:24.948Z,98012.01
2018-11-23T14:17:54.920Z,98016.86
2018-11-23T14:20:24.593Z,98011.77
2018-11-23T14:22:53.439Z,98016.30
2018-11-23T14:25:24.155Z,98022.02
2018-11-23T14:27:54.041Z,98022.53
2018-11-23T14:30:25.476Z,98010.44
2018-11-23T14:32:56.213Z,98011.27
2018-11-23T14:35:29.255Z,98004.70
2018-11-23T14:37:59.757Z,98006.66
2018-11-23T14:40:28.841Z,97990.73
2018-11-23T14:42:58.175Z,97989.63
2018-11-23T14:45:28.762Z,97996.56
2018-11-23T14:47:58.442Z,97989.34
2018-11-23T14:50:30.606Z,97981.30
2018-11-23T14:53:00.259Z,97987.88
2018-11-23T14:55:30.278Z,97988.45
2018-11-23T14:58:00.179Z,97993.19
2018-11-23T15:00:33.340Z,97996.16
2018-11-23T15:03:03.256Z,98000.44
2018-11-23T15:05:32.790Z,98007.55
2018-11-23T15:08:02.029Z,97997.64
2018-11-23T15:10:32.084Z,98002.27
2018-11-23T15:13:02.308Z,98007.64
2018-11-23T15:15:32.609Z,98007.13
2018-11-23T15:18:01.832Z,98007.98
2018-11-23T15:20:36.582Z,98000.48
2018-11-23T15:23:13.995Z,97998.89
2018-11-23T15:25:43.775Z,97997.31
2018-11-23T15:28:13.152Z,97991.94
2018-11-23T15:30:42.933Z,98001.66
2018-11-23T15:33:14.959Z,98001.16
2018-11-23T15:35:44.410Z,97998.20
2018-11-23T15:38:15.182Z,97993.89
2018-11-23T15:40:45.219Z,97997.37
2018-11-23T15:43:15.325Z,97995.78
2018-11-23T15:45:44.765Z,97992.29
2018-11-23T15:48:13.859Z,97988.53
2018-11-23T15:50:43.660Z,97985.59
2018-11-23T15:53:14.040Z,97996.84
2018-11-23T15:55:43.237Z,97990.42
2018-11-23T15:58:13.806Z,97990.70
2018-11-23T16:00:44.099Z,97986.67
2018-11-23T16:03:14.045Z,97990.44
2018-11-23T16:05:44.215Z,97984.26
2018-11-23T16:08:22.718Z,97985.88
2018-11-23T16:10:55.504Z,97981.85
2018-11-23T16:13:24.612Z,97981.03
2018-11-23T16:15:54.869Z,97980.23
2018-11-23T16:18:23.979Z,97973.52
2018-11-23T16:20:53.402Z,97965.49
2018-11-23T16:23:23.020Z,97962.01
2018-11-23T16:25:53.555Z,97956.91
2018-11-23T16:28:22.952Z,97961.47
2018-11-23T16:30:52.452Z,97957.98
2018-11-23T16:33:22.832Z,97956.36
2018-11-23T16:35:52.316Z,97956.88
2018-11-23T16:38:22.838Z,97953.68
2018-11-23T16:40:55.137Z,97953.93
2018-11-23T16:43:24.356Z,97946.45
2018-11-23T16:45:53.660Z,97938.64
2018-11-23T16:48:23.188Z,97942.95
2018-11-23T16:50:52.671Z,97935.98
2018-11-23T16:53:21.885Z,97940.01
2018-11-23T16:55:51.261Z,97932.48
2018-11-23T16:58:20.213Z,97932.48
2018-11-23T17:00:49.589Z,97933.03
2018-11-23T17:03:20.571Z,97923.66
2018-11-23T17:05:52.869Z,97918.81
2018-11-23T17:08:22.060Z,97909.70
2018-11-23T17:10:51.231Z,97906.48
2018-11-23T17:13:20.274Z,97902.74
2018-11-23T17:15:49.781Z,97901.39
2018-11-23T17:18:18.586Z,97902.73
2018-11-23T17:20:47.512Z,97893.88
2018-11-23T17:23:16.379Z,97887.96
2018-11-23T17:25:45.372Z,97887.95
2018-11-23T17:28:14.896Z,97882.63
2018-11-23T17:30:45.446Z,97879.14
2018-11-23T17:33:15.412Z,97874.57
2018-11-23T17:35:45.186Z,97871.06
2018-11-23T17:38:15.677Z,97864.12
2018-11-23T17:40:56.402Z,97859.56
2018-11-23T17:43:25.740Z,97855.00
2018-11-23T17:45:56.216Z,97848.86
2018-11-23T17:48:26.044Z,97840.02
2018-11-23T17:50:58.227Z,97837.29
2018-11-23T17:53:27.839Z,97822.84
2018-11-23T17:55:56.893Z,97820.98
2018-11-23T17:58:26.145Z,97816.46
2018-11-23T18:00:56.031Z,97831.71
2018-11-23T18:03:25.397Z,97827.97
2018-11-23T18:05:55.697Z,97822.06
2018-11-23T18:08:24.954Z,97819.37
2018-11-23T18:10:55.745Z,97810.27
2018-11-23T18:13:25.249Z,97809.45
2018-11-23T18:15:54.856Z,97808.11
2018-11-23T18:18:24.945Z,97798.45
2018-11-23T18:20:54.090Z,97788.55
2018-11-23T18:23:24.491Z,97781.05
2018-11-23T18:25:53.547Z,97761.50
2018-11-23T18:28:23.344Z,97768.73
2018-11-23T18:30:53.776Z,97764.73
2018-11-23T18:33:23.511Z,97759.84
2018-11-23T18:35:54.184Z,97751.03
2018-11-23T18:38:23.566Z,97754.22
2018-11-23T18:40:52.782Z,97760.69
2018-11-23T18:43:23.536Z,97759.91
2018-11-23T18:45:52.878Z,97759.07
2018-11-23T18:48:22.383Z,97759.89
2018-11-23T18:50:51.556Z,97758.27
2018-11-23T18:53:20.746Z,97757.73
2018-11-23T18:55:49.811Z,97758.83
2018-11-23T18:58:19.298Z,97758.55
2018-11-23T19:00:48.694Z,97752.13
2018-11-23T19:03:18.543Z,97740.62
2018-11-23T19:05:51.650Z,97733.40
2018-11-23T19:08:21.342Z,97728.07
2018-11-23T19:10:51.077Z,97717.89
2018-11-23T19:13:20.347Z,97712.27
2018-11-23T19:15:49.781Z,97708.77
2018-11-23T19:18:19.713Z,97699.96
2018-11-23T19:20:48.864Z,97697.80
2018-11-23T19:23:18.261Z,97698.06
2018-11-23T19:25:47.364Z,97694.06
2018-11-23T19:28:16.586Z,97691.64
2018-11-23T19:30:45.847Z,97692.97
2018-11-23T19:33:15.268Z,97694.57
2018-11-23T19:35:44.206Z,97692.95
2018-11-23T19:38:13.833Z,97701.47
2018-11-23T19:40:43.386Z,97706.31
2018-11-23T19:43:14.263Z,97706.55
2018-11-23T19:45:44.367Z,97704.96
2018-11-23T19:48:15.087Z,97702.27
2018-11-23T19:50:44.865Z,97704.95
2018-11-23T19:53:15.633Z,97697.98
2018-11-23T19:55:45.056Z,97700.91
2018-11-23T19:58:14.324Z,97702.79
2018-11-23T20:00:44.506Z,97705.66
2018-11-23T20:03:14.618Z,97701.94
2018-11-23T20:05:44.360Z,97712.34
2018-11-23T20:08:15.908Z,97706.71
2018-11-23T20:10:46.807Z,97711.55
2018-11-23T20:13:16.381Z,97713.13
2018-11-23T20:15:47.503Z,97714.73
2018-11-23T20:18:16.588Z,97720.32
2018-11-23T20:20:45.738Z,97720.61
2018-11-23T20:23:15.007Z,97721.41
2018-11-23T20:25:45.269Z,97724.36
2018-11-23T20:28:14.583Z,97717.42
2018-11-23T20:30:44.252Z,97717.44
2018-11-23T20:33:13.871Z,97721.47
2018-11-23T20:35:42.912Z,97721.20
2018-11-23T20:38:12.337Z,97721.20
2018-11-23T20:40:41.591Z,97720.64
2018-11-23T20:43:10.850Z,97730.27
2018-11-23T20:45:40.507Z,97732.66
2018-11-23T20:48:10.220Z,97722.79
2018-11-23T20:50:39.459Z,97727.88
2018-11-23T20:53:08.893Z,97729.21
2018-11-23T20:55:37.988Z,97723.89
2018-11-23T20:58:07.399Z,97710.79
2018-11-23T21:00:36.462Z,97714.81
2018-11-23T21:03:06.691Z,97705.46
2018-11-23T21:05:35.762Z,97706.23
2018-11-23T21:08:04.884Z,97705.69
2018-11-23T21:10:34.218Z,97706.50
2018-11-23T21:13:03.559Z,97699.80
2018-11-23T21:15:33.592Z,97700.09
2018-11-23T21:18:04.817Z,97690.99
2018-11-23T21:20:33.904Z,97687.25
2018-11-23T21:23:03.187Z,97681.92
2018-11-23T21:25:32.472Z,97690.48
2018-11-23T21:28:01.739Z,97687.25
2018-11-23T21:30:30.953Z,97687.77
2018-11-23T21:33:00.115Z,97685.91
2018-11-23T21:35:29.835Z,97685.11
2018-11-23T21:37:58.767Z,97677.88
2018-11-23T21:40:27.825Z,97684.55
2018-11-23T21:42:56.857Z,97683.77
2018-11-23T21:45:26.445Z,97680.02
2018-11-23T21:47:55.357Z,97678.14
2018-11-23T21:50:25.766Z,97674.67
2018-11-23T21:52:53.797Z,97666.95
2018-11-23T21:55:26.311Z,97658.94
2018-11-23T21:57:57.100Z,97661.60
2018-11-23T22:00:26.662Z,97660.52
2018-11-23T22:02:55.781Z,97657.05
2018-11-23T22:05:24.822Z,97649.27
2018-11-23T22:07:54.068Z,97645.52
2018-11-23T22:10:23.514Z,97640.16
2018-11-23T22:12:52.760Z,97633.48
2018-11-23T22:15:24.708Z,97623.34
2018-11-23T22:17:54.999Z,97629.79
2018-11-23T22:20:24.363Z,97622.84
2018-11-23T22:22:53.157Z,97612.68
2018-11-23T22:25:23.410Z,97612.95
2018-11-23T22:27:52.648Z,97612.69
2018-11-23T22:30:27.975Z,97602.81
2018-11-23T22:32:56.975Z,97595.86
2018-11-23T22:35:26.349Z,97593.19
2018-11-23T22:37:55.432Z,97595.59
2018-11-23T22:40:24.538Z,97584.12
2018-11-23T22:42:54.873Z,97579.55
2018-11-23T22:45:23.992Z,97569.67
2018-11-23T22:47:53.379Z,97560.06
2018-11-23T22:50:23.613Z,97556.33
2018-11-23T22:52:52.661Z,97552.86
2018-11-23T22:55:25.875Z,97554.72
2018-11-23T22:57:55.331Z,97550.98
2018-11-23T23:00:31.553Z,97538.70
2018-11-23T23:03:01.341Z,97536.56
2018-11-23T23:05:30.136Z,97527.73
2018-11-23T23:07:58.888Z,97534.14
2018-11-23T23:10:28.142Z,97527.47
2018-11-23T23:12:56.967Z,97508.77
2018-11-23T23:15:26.445Z,97511.70
2018-11-23T23:17:55.605Z,97511.97
2018-11-23T23:20:25.461Z,97517.87
2018-11-23T23:22:55.059Z,97509.31
2018-11-23T23:25:24.273Z,97511.18
2018-11-23T23:27:53.133Z,97512.77
2018-11-23T23:30:21.987Z,97517.83
2018-11-23T23:32:50.630Z,97521.56
2018-11-23T23:35:19.364Z,97515.18
2018-11-23T23:37:48.426Z,97520.54
2018-11-23T23:40:18.818Z,97517.84
2018-11-23T23:42:48.083Z,97523.45
2018-11-23T23:45:18.086Z,97522.41
2018-11-23T23:47:47.272Z,97528.55
2018-11-23T23:50:18.553Z,97529.89
2018-11-23T23:52:47.651Z,97534.16
2018-11-23T23:55:17.161Z,97541.92
2018-11-23T23:57:47.116Z,97542.73
